Time;durP1;ratioP1;P1;durP2;ratioP2;P2;SDS_P1;SDS_P2;PMS_P1;PMS_P2;Temp;Humidity;BMP_temperature;BMP_pressure;BME280_temperature;BME280_humidity;BME280_pressure;Samples;Min_cycle;Max_cycle;Signal;HPM_P1;HPM_P2
2022/05/26 00:01:36;;;;;;;1.15;0.30;;;;;;;;;;10427724;28;20211;-72
2022/05/26 00:06:37;;;;;;;0.80;0.40;;;;;;;;;;10435222;28;20598;-71
2022/05/26 00:11:39;;;;;;;1.38;0.40;;;;;;;;;;10427772;28;20222;-72
2022/05/26 00:16:44;;;;;;;1.55;0.30;;;;;;;;;;10425399;28;20195;-71
2022/05/26 00:21:49;;;;;;;2.92;0.40;;;;;;;;;;10442121;28;20241;-71
2022/05/26 00:26:50;;;;;;;0.85;0.50;;;;;;;;;;10463363;28;20214;-72
2022/05/26 00:31:51;;;;;;;1.17;0.35;;;;;;;;;;10442438;28;20217;-72
2022/05/26 00:36:52;;;;;;;0.43;0.43;;;;;;;;;;10446728;28;20198;-72
2022/05/26 00:41:55;;;;;;;1.38;0.38;;;;;;;;;;10454172;28;20305;-73
2022/05/26 00:47:02;;;;;;;0.30;0.30;;;;;;;;;;10439237;28;20194;-72
2022/05/26 00:52:04;;;;;;;0.35;0.35;;;;;;;;;;10442896;28;20198;-73
2022/05/26 00:57:16;;;;;;;0.30;0.30;;;;;;;;;;10446708;28;20211;-72
2022/05/26 01:02:18;;;;;;;0.40;0.40;;;;;;;;;;10441640;28;20210;-72
2022/05/26 01:07:23;;;;;;;4.00;0.40;;;;;;;;;;10444459;28;20338;-73
2022/05/26 01:12:24;;;;;;;1.15;0.50;;;;;;;;;;10443620;28;20241;-73
2022/05/26 01:17:44;;;;;;;4.60;0.50;;;;;;;;;;10445051;28;20233;-72
2022/05/26 01:23:04;;;;;;;1.55;0.50;;;;;;;;;;10450513;28;20202;-72
2022/05/26 01:28:15;;;;;;;0.43;0.43;;;;;;;;;;10429363;28;20691;-71
2022/05/26 01:33:22;;;;;;;1.23;0.40;;;;;;;;;;10465107;28;20889;-73
2022/05/26 01:38:48;;;;;;;1.38;0.50;;;;;;;;;;10436370;28;20206;-72
2022/05/26 01:43:57;;;;;;;0.40;0.30;;;;;;;;;;10453353;28;20765;-71
2022/05/26 01:49:18;;;;;;;1.13;0.50;;;;;;;;;;10471575;28;20214;-70
2022/05/26 01:54:22;;;;;;;1.70;0.57;;;;;;;;;;10470572;28;20241;-73
2022/05/26 01:59:53;;;;;;;0.70;0.65;;;;;;;;;;10414046;28;20249;-71
2022/05/26 02:04:57;;;;;;;3.33;0.40;;;;;;;;;;10415606;28;20718;-71
2022/05/26 02:10:00;;;;;;;0.90;0.60;;;;;;;;;;10442767;28;20275;-71
2022/05/26 02:15:09;;;;;;;0.82;0.60;;;;;;;;;;10452720;28;20259;-71
2022/05/26 02:20:26;;;;;;;1.25;1.15;;;;;;;;;;10451536;28;20573;-72
2022/05/26 02:25:28;;;;;;;0.60;0.60;;;;;;;;;;10470930;28;20233;-72
2022/05/26 02:30:32;;;;;;;0.80;0.80;;;;;;;;;;10469130;28;20267;-72
2022/05/26 02:35:34;;;;;;;0.50;0.50;;;;;;;;;;10468086;28;20228;-71
2022/05/26 02:40:35;;;;;;;1.05;0.50;;;;;;;;;;10469107;28;20206;-71
2022/05/26 02:46:06;;;;;;;1.42;0.60;;;;;;;;;;10424083;28;20210;-71
2022/05/26 02:51:17;;;;;;;1.25;0.68;;;;;;;;;;10450653;28;20271;-72
2022/05/26 02:56:18;;;;;;;2.40;0.50;;;;;;;;;;10433567;28;20202;-71
2022/05/26 03:01:30;;;;;;;2.38;0.63;;;;;;;;;;10450448;28;20273;-72
2022/05/26 03:06:37;;;;;;;0.68;0.60;;;;;;;;;;10448475;28;20221;-72
2022/05/26 03:11:46;;;;;;;0.60;0.60;;;;;;;;;;10462524;28;20316;-71
2022/05/26 03:16:48;;;;;;;2.10;0.75;;;;;;;;;;10465987;28;20227;-71
2022/05/26 03:21:49;;;;;;;1.33;0.95;;;;;;;;;;10447693;28;20609;-71
2022/05/26 03:26:50;;;;;;;0.88;0.80;;;;;;;;;;10449536;28;20712;-72
2022/05/26 03:31:51;;;;;;;0.93;0.80;;;;;;;;;;10464314;28;20228;-71
2022/05/26 03:42:13;;;;;;;1.58;1.00;;;;;;;;;;10462612;28;20201;-71
2022/05/26 03:47:14;;;;;;;1.20;0.70;;;;;;;;;;10447544;28;20206;-71
2022/05/26 03:52:15;;;;;;;4.50;1.00;;;;;;;;;;10467579;28;20202;-72
2022/05/26 03:57:26;;;;;;;6.15;0.90;;;;;;;;;;10476686;28;20194;-72
2022/05/26 04:02:28;;;;;;;1.70;1.00;;;;;;;;;;10454650;28;20605;-73
2022/05/26 04:07:29;;;;;;;1.83;1.08;;;;;;;;;;10460886;28;20222;-72
2022/05/26 04:12:30;;;;;;;1.85;1.00;;;;;;;;;;10426100;28;20214;-73
2022/05/26 04:17:31;;;;;;;0.88;0.88;;;;;;;;;;10426986;28;20944;-72
2022/05/26 04:22:32;;;;;;;1.55;0.95;;;;;;;;;;10420625;28;20252;-71
2022/05/26 04:27:33;;;;;;;3.53;1.45;;;;;;;;;;10444755;28;20205;-71
2022/05/26 04:32:34;;;;;;;3.55;0.90;;;;;;;;;;10466404;28;20218;-72
2022/05/26 04:37:36;;;;;;;1.95;1.42;;;;;;;;;;10464491;28;20256;-72
2022/05/26 04:42:37;;;;;;;1.35;1.00;;;;;;;;;;10446821;28;20194;-71
2022/05/26 04:47:38;;;;;;;2.10;0.90;;;;;;;;;;10431086;28;20202;-71
2022/05/26 04:52:39;;;;;;;1.20;1.00;;;;;;;;;;10464622;28;20205;-72
2022/05/26 04:57:41;;;;;;;3.50;1.63;;;;;;;;;;10455038;28;20205;-71
2022/05/26 05:02:42;;;;;;;1.83;1.17;;;;;;;;;;10430820;28;20305;-71
2022/05/26 05:07:43;;;;;;;1.58;1.30;;;;;;;;;;10430675;28;20288;-71
2022/05/26 05:12:44;;;;;;;2.83;1.40;;;;;;;;;;10456400;28;20277;-72
2022/05/26 05:17:45;;;;;;;2.25;1.30;;;;;;;;;;10455248;28;20206;-72
2022/05/26 05:23:00;;;;;;;2.33;1.35;;;;;;;;;;10453786;28;20506;-73
2022/05/26 05:28:04;;;;;;;1.30;1.20;;;;;;;;;;10453827;28;20206;-73
2022/05/26 05:33:10;;;;;;;2.83;1.67;;;;;;;;;;10470268;28;20218;-73
2022/05/26 05:38:12;;;;;;;1.52;1.42;;;;;;;;;;10455492;28;20206;-73
2022/05/26 05:43:13;;;;;;;2.63;1.60;;;;;;;;;;10471771;28;20305;-73
2022/05/26 05:48:14;;;;;;;1.52;1.52;;;;;;;;;;10466421;28;21076;-71
2022/05/26 05:53:15;;;;;;;1.30;1.23;;;;;;;;;;10468310;28;20285;-73
2022/05/26 05:58:16;;;;;;;1.48;1.33;;;;;;;;;;10448719;28;20703;-71
2022/05/26 06:03:17;;;;;;;2.55;1.63;;;;;;;;;;10468159;28;20220;-72
2022/05/26 06:08:18;;;;;;;1.77;1.67;;;;;;;;;;10467121;28;20284;-70
2022/05/26 06:13:19;;;;;;;2.13;2.03;;;;;;;;;;10455203;28;20317;-72
2022/05/26 06:18:21;;;;;;;2.08;1.90;;;;;;;;;;10461346;28;20597;-73
2022/05/26 06:23:22;;;;;;;2.47;2.30;;;;;;;;;;10452635;28;20769;-71
2022/05/26 06:39:03;;;;;;;3.20;3.00;;;;;;;;;;10452861;28;20206;-73
2022/05/26 06:44:04;;;;;;;3.65;2.58;;;;;;;;;;10452007;28;20608;-71
2022/05/26 06:49:06;;;;;;;3.08;2.80;;;;;;;;;;10453370;28;20214;-73
2022/05/26 06:54:07;;;;;;;2.50;2.50;;;;;;;;;;10450866;28;20580;-72
2022/05/26 06:59:08;;;;;;;3.60;2.60;;;;;;;;;;10469440;28;20210;-71
2022/05/26 07:04:09;;;;;;;4.65;2.72;;;;;;;;;;10446718;28;20833;-71
2022/05/26 07:09:10;;;;;;;2.97;2.63;;;;;;;;;;10448062;28;20198;-71
2022/05/26 07:14:11;;;;;;;3.10;3.00;;;;;;;;;;10432535;28;20222;-72
2022/05/26 07:19:13;;;;;;;2.92;2.78;;;;;;;;;;10469543;28;20201;-72
2022/05/26 07:24:16;;;;;;;4.18;2.70;;;;;;;;;;10469783;28;20264;-73
2022/05/26 07:29:18;;;;;;;4.00;3.08;;;;;;;;;;10440178;28;20214;-72
2022/05/26 07:34:20;;;;;;;4.15;3.45;;;;;;;;;;10432381;28;20218;-73
2022/05/26 07:44:42;;;;;;;4.45;4.15;;;;;;;;;;10469140;28;21070;-73
2022/05/26 07:49:45;;;;;;;4.25;3.72;;;;;;;;;;10469258;28;20214;-72
2022/05/26 07:54:47;;;;;;;3.97;3.67;;;;;;;;;;10465815;28;20237;-73
2022/05/26 07:59:48;;;;;;;3.50;3.40;;;;;;;;;;10467391;28;20267;-72
2022/05/26 08:04:49;;;;;;;5.10;3.58;;;;;;;;;;10459099;28;20273;-73
2022/05/26 08:09:50;;;;;;;4.03;3.65;;;;;;;;;;10427541;28;20594;-72
2022/05/26 08:14:51;;;;;;;3.80;2.85;;;;;;;;;;10443300;28;20207;-72
2022/05/26 08:19:52;;;;;;;4.18;3.70;;;;;;;;;;10451900;28;20297;-72
2022/05/26 08:24:55;;;;;;;3.40;3.10;;;;;;;;;;10425017;28;20235;-73
2022/05/26 08:29:59;;;;;;;3.10;2.63;;;;;;;;;;10467144;28;20214;-72
2022/05/26 08:35:01;;;;;;;5.13;2.17;;;;;;;;;;10458466;28;20328;-74
2022/05/26 08:40:02;;;;;;;2.47;2.30;;;;;;;;;;10425213;28;20206;-72
2022/05/26 08:45:06;;;;;;;2.15;2.05;;;;;;;;;;10464159;28;20692;-73
2022/05/26 08:50:10;;;;;;;2.20;2.10;;;;;;;;;;10474912;28;21062;-73
2022/05/26 08:55:15;;;;;;;1.63;1.58;;;;;;;;;;10473794;28;20293;-73
2022/05/26 09:00:26;;;;;;;2.78;2.58;;;;;;;;;;10473904;28;20213;-74
2022/05/26 09:05:33;;;;;;;2.45;2.35;;;;;;;;;;10474624;28;20234;-77
2022/05/26 09:15:59;;;;;;;2.63;2.30;;;;;;;;;;10440589;28;20276;-77
2022/05/26 09:21:19;;;;;;;4.35;1.80;;;;;;;;;;10437837;28;20229;-77
2022/05/26 09:26:22;;;;;;;1.63;1.63;;;;;;;;;;10455955;28;20237;-76
2022/05/26 09:31:36;;;;;;;2.33;2.22;;;;;;;;;;10471989;28;20261;-79
2022/05/26 09:36:37;;;;;;;4.15;2.25;;;;;;;;;;10472913;28;20973;-77
2022/05/26 09:41:43;;;;;;;2.22;2.03;;;;;;;;;;10475768;28;20202;-77
2022/05/26 09:46:48;;;;;;;2.03;1.92;;;;;;;;;;10442644;28;20686;-77
2022/05/26 09:51:49;;;;;;;2.38;2.08;;;;;;;;;;10473719;28;20214;-77
2022/05/26 09:56:50;;;;;;;2.38;1.92;;;;;;;;;;10453981;28;20874;-77
2022/05/26 10:01:57;;;;;;;2.25;1.95;;;;;;;;;;10471911;28;20272;-77
2022/05/26 10:06:59;;;;;;;2.45;2.13;;;;;;;;;;10472055;28;20233;-76
2022/05/26 10:12:18;;;;;;;2.30;2.20;;;;;;;;;;10452191;28;20665;-76
2022/05/26 10:17:38;;;;;;;2.88;2.30;;;;;;;;;;10434422;28;20222;-76
2022/05/26 10:22:51;;;;;;;5.10;2.85;;;;;;;;;;10444480;28;20209;-76
2022/05/26 10:27:56;;;;;;;2.45;2.33;;;;;;;;;;10451545;28;20203;-76
2022/05/26 10:33:16;;;;;;;2.38;2.17;;;;;;;;;;10447861;28;20226;-77
2022/05/26 10:38:25;;;;;;;3.15;2.95;;;;;;;;;;10447360;28;20190;-76
2022/05/26 10:43:29;;;;;;;2.97;2.70;;;;;;;;;;10469184;28;20199;-76
2022/05/26 10:48:39;;;;;;;2.95;2.75;;;;;;;;;;10443182;28;20218;-75
2022/05/26 10:53:55;;;;;;;2.28;1.67;;;;;;;;;;10467833;28;20263;-76
2022/05/26 10:59:01;;;;;;;1.50;1.38;;;;;;;;;;10437819;28;20214;-76
2022/05/26 11:04:08;;;;;;;2.65;1.50;;;;;;;;;;10417871;28;20261;-76
2022/05/26 11:09:09;;;;;;;0.98;0.90;;;;;;;;;;10433182;28;20206;-76
2022/05/26 11:14:10;;;;;;;1.90;1.27;;;;;;;;;;10466072;28;20292;-76
2022/05/26 11:19:33;;;;;;;2.22;1.98;;;;;;;;;;10445971;28;20200;-75
2022/05/26 11:24:34;;;;;;;3.97;1.20;;;;;;;;;;10468169;28;20297;-77
2022/05/26 11:29:37;;;;;;;2.35;1.17;;;;;;;;;;10468927;28;20210;-76
2022/05/26 11:40:08;;;;;;;1.95;0.82;;;;;;;;;;10435067;28;20232;-78
2022/05/26 11:45:09;;;;;;;1.75;0.63;;;;;;;;;;10459642;28;20203;-77
2022/05/26 11:50:21;;;;;;;0.88;0.88;;;;;;;;;;10434889;28;20229;-76
2022/05/26 11:55:41;;;;;;;0.60;0.60;;;;;;;;;;10463835;28;21456;-77
2022/05/26 12:00:44;;;;;;;2.60;0.60;;;;;;;;;;10448215;28;20218;-76
2022/05/26 12:05:46;;;;;;;2.72;0.60;;;;;;;;;;10462297;28;20218;-76
2022/05/26 12:10:56;;;;;;;1.30;0.70;;;;;;;;;;10461428;28;20296;-77
2022/05/26 12:16:15;;;;;;;1.48;0.70;;;;;;;;;;10444672;28;20253;-77
2022/05/26 12:21:19;;;;;;;3.53;0.82;;;;;;;;;;10415428;28;20253;-77
2022/05/26 12:26:28;;;;;;;1.25;0.60;;;;;;;;;;10437290;28;20199;-77
2022/05/26 12:31:29;;;;;;;0.60;0.60;;;;;;;;;;10446695;28;20236;-78
2022/05/26 12:36:39;;;;;;;1.88;0.77;;;;;;;;;;10464530;28;20205;-77
2022/05/26 12:41:46;;;;;;;3.97;1.23;;;;;;;;;;10446129;28;20195;-75
2022/05/26 12:46:53;;;;;;;0.70;0.70;;;;;;;;;;10444522;28;20202;-77
2022/05/26 12:52:07;;;;;;;2.58;0.50;;;;;;;;;;10449087;28;20937;-77
2022/05/26 12:57:09;;;;;;;2.35;0.90;;;;;;;;;;10445157;28;20199;-77
2022/05/26 13:02:13;;;;;;;0.88;0.80;;;;;;;;;;10391382;28;20214;-77
2022/05/26 13:07:15;;;;;;;1.25;0.98;;;;;;;;;;10425042;28;20222;-79
2022/05/26 13:12:19;;;;;;;2.33;0.80;;;;;;;;;;10425228;28;20211;-75
2022/05/26 13:17:25;;;;;;;0.75;0.70;;;;;;;;;;10405862;28;20202;-76
2022/05/26 13:22:31;;;;;;;3.80;1.02;;;;;;;;;;10452850;28;20199;-77
2022/05/26 13:27:46;;;;;;;2.30;0.90;;;;;;;;;;10436074;28;20206;-78
2022/05/26 13:38:21;;;;;;;2.45;0.80;;;;;;;;;;10430997;28;20237;-76
2022/05/26 13:43:22;;;;;;;1.30;0.88;;;;;;;;;;10422184;28;20213;-77
2022/05/26 13:48:28;;;;;;;3.10;1.25;;;;;;;;;;10432811;28;20202;-78
2022/05/26 13:53:29;;;;;;;1.50;1.10;;;;;;;;;;10437890;28;20752;-77
2022/05/26 13:58:31;;;;;;;3.30;0.90;;;;;;;;;;10417013;28;20198;-78
2022/05/26 14:03:34;;;;;;;1.60;1.35;;;;;;;;;;10392857;28;20276;-78
2022/05/26 14:08:52;;;;;;;1.15;1.05;;;;;;;;;;10405339;28;21072;-79
2022/05/26 14:13:53;;;;;;;3.15;1.10;;;;;;;;;;10418803;28;20209;-77
2022/05/26 14:19:00;;;;;;;1.50;1.40;;;;;;;;;;10414819;28;20202;-77
2022/05/26 14:24:04;;;;;;;2.95;1.50;;;;;;;;;;10431727;28;20208;-76
2022/05/26 14:29:17;;;;;;;4.43;1.48;;;;;;;;;;10419808;28;20371;-76
2022/05/26 14:34:24;;;;;;;2.45;1.50;;;;;;;;;;10431936;28;20206;-77
2022/05/26 14:39:25;;;;;;;3.00;1.60;;;;;;;;;;10435016;28;20286;-77
2022/05/26 14:44:26;;;;;;;3.60;1.60;;;;;;;;;;10424309;28;24081;-77
2022/05/26 14:49:27;;;;;;;1.88;1.42;;;;;;;;;;10397678;28;20353;-77
2022/05/26 14:59:50;;;;;;;1.30;1.20;;;;;;;;;;10425502;28;20203;-77
2022/05/26 15:04:52;;;;;;;2.72;1.25;;;;;;;;;;10412480;28;20230;-77
2022/05/26 15:09:53;;;;;;;1.25;1.17;;;;;;;;;;10410058;28;20210;-77
2022/05/26 15:14:54;;;;;;;3.03;1.42;;;;;;;;;;10415180;28;20300;-78
2022/05/26 15:19:57;;;;;;;3.17;1.10;;;;;;;;;;10451747;28;20210;-77
2022/05/26 15:24:59;;;;;;;4.88;1.50;;;;;;;;;;10424103;28;20273;-77
2022/05/26 15:30:00;;;;;;;3.00;1.48;;;;;;;;;;10444535;28;20291;-74
2022/05/26 15:35:12;;;;;;;2.78;1.20;;;;;;;;;;10442037;28;20230;-76
2022/05/26 15:40:20;;;;;;;1.27;1.17;;;;;;;;;;10427446;28;20260;-76
2022/05/26 15:45:21;;;;;;;1.90;1.38;;;;;;;;;;10423202;28;20207;-76
2022/05/26 15:50:25;;;;;;;1.85;1.75;;;;;;;;;;10418752;28;20627;-76
2022/05/26 15:55:26;;;;;;;3.15;2.95;;;;;;;;;;10435548;28;20199;-76
2022/05/26 16:00:27;;;;;;;7.32;3.83;;;;;;;;;;10430591;28;20225;-75
2022/05/26 16:05:28;;;;;;;4.18;3.88;;;;;;;;;;10399882;28;20325;-75
2022/05/26 16:10:29;;;;;;;5.35;3.40;;;;;;;;;;10461685;28;20214;-75
2022/05/26 16:15:30;;;;;;;5.65;3.67;;;;;;;;;;10452194;28;20227;-75
2022/05/26 16:20:32;;;;;;;3.30;3.10;;;;;;;;;;10432927;28;20248;-74
2022/05/26 16:25:33;;;;;;;4.15;3.85;;;;;;;;;;10436984;28;20198;-76
2022/05/26 16:30:34;;;;;;;6.95;3.72;;;;;;;;;;10444431;28;20222;-76
2022/05/26 16:40:56;;;;;;;5.95;4.15;;;;;;;;;;10452376;28;20206;-76
2022/05/26 16:45:57;;;;;;;4.32;4.03;;;;;;;;;;10414394;28;20201;-76
2022/05/26 16:50:59;;;;;;;5.60;4.18;;;;;;;;;;10437493;28;20271;-77
2022/05/26 16:56:01;;;;;;;6.35;4.05;;;;;;;;;;10448976;28;20234;-76
2022/05/26 17:01:03;;;;;;;4.10;3.80;;;;;;;;;;10449441;28;20253;-76
2022/05/26 17:06:05;;;;;;;3.92;3.70;;;;;;;;;;10442510;28;20231;-77
2022/05/26 17:11:06;;;;;;;7.55;3.70;;;;;;;;;;10432699;28;20210;-77
2022/05/26 17:21:29;;;;;;;4.78;3.92;;;;;;;;;;10461620;28;20244;-76
2022/05/26 17:26:31;;;;;;;5.10;4.45;;;;;;;;;;10442885;28;20217;-77
2022/05/26 17:31:32;;;;;;;4.57;4.28;;;;;;;;;;10428902;28;20317;-77
2022/05/26 17:36:35;;;;;;;5.15;4.03;;;;;;;;;;10443428;28;20285;-77
2022/05/26 17:41:36;;;;;;;5.82;4.38;;;;;;;;;;10436130;28;20234;-77
2022/05/26 17:46:38;;;;;;;5.40;4.70;;;;;;;;;;10432204;28;20859;-76
2022/05/26 17:51:40;;;;;;;4.97;4.57;;;;;;;;;;10441592;28;20210;-77
2022/05/26 17:56:41;;;;;;;5.05;4.43;;;;;;;;;;10424126;28;20191;-76
2022/05/26 18:01:44;;;;;;;6.13;4.63;;;;;;;;;;10435501;28;20254;-76
2022/05/26 18:06:47;;;;;;;5.18;4.30;;;;;;;;;;10400981;28;20219;-76
2022/05/26 18:11:48;;;;;;;5.53;4.55;;;;;;;;;;10424804;28;20289;-76
2022/05/26 18:16:49;;;;;;;4.15;3.85;;;;;;;;;;10446423;28;20197;-76
2022/05/26 18:21:52;;;;;;;6.38;5.47;;;;;;;;;;10445880;28;20199;-76
2022/05/26 18:26:53;;;;;;;5.68;4.38;;;;;;;;;;10432132;28;20198;-76
2022/05/26 18:31:55;;;;;;;4.65;4.18;;;;;;;;;;10445529;28;20308;-76
2022/05/26 18:36:56;;;;;;;4.88;4.38;;;;;;;;;;10392071;28;20202;-76
2022/05/26 18:41:57;;;;;;;7.22;4.40;;;;;;;;;;10428674;28;20199;-76
2022/05/26 18:46:58;;;;;;;3.90;3.60;;;;;;;;;;10438399;28;20191;-76
2022/05/26 18:51:59;;;;;;;3.65;3.35;;;;;;;;;;10445235;28;20753;-77
2022/05/26 18:57:00;;;;;;;6.03;3.50;;;;;;;;;;10451800;28;20205;-76
2022/05/26 19:02:02;;;;;;;3.50;3.35;;;;;;;;;;10413186;28;20732;-72
2022/05/26 19:07:03;;;;;;;5.72;3.88;;;;;;;;;;10441226;28;20230;-72
2022/05/26 19:12:04;;;;;;;4.88;4.47;;;;;;;;;;10436876;28;20210;-72
2022/05/26 19:17:07;;;;;;;3.60;3.40;;;;;;;;;;10447727;28;20210;-73
2022/05/26 19:22:08;;;;;;;4.55;4.13;;;;;;;;;;10411795;28;20194;-73
2022/05/26 19:27:11;;;;;;;3.80;3.60;;;;;;;;;;10422122;28;20228;-72
2022/05/26 19:32:13;;;;;;;8.25;3.60;;;;;;;;;;10406341;28;20220;-72
2022/05/26 19:37:14;;;;;;;4.85;3.55;;;;;;;;;;10423531;28;20208;-72
2022/05/26 19:42:20;;;;;;;4.40;3.33;;;;;;;;;;10449206;28;20290;-72
2022/05/26 19:47:23;;;;;;;3.40;3.10;;;;;;;;;;10451615;28;20285;-73
2022/05/26 19:52:24;;;;;;;7.03;2.90;;;;;;;;;;10423025;28;20825;-72
2022/05/26 19:57:29;;;;;;;4.13;3.78;;;;;;;;;;10433724;28;20202;-72
2022/05/26 20:02:34;;;;;;;3.95;3.42;;;;;;;;;;10399692;28;20241;-73
2022/05/26 20:07:35;;;;;;;5.97;3.40;;;;;;;;;;10443033;28;20289;-74
2022/05/26 20:12:36;;;;;;;3.15;2.95;;;;;;;;;;10428301;28;20203;-73
2022/05/26 20:17:40;;;;;;;4.25;3.33;;;;;;;;;;10398137;28;20207;-73
2022/05/26 20:22:41;;;;;;;3.33;2.85;;;;;;;;;;10439859;28;20241;-73
2022/05/26 20:29:29;;;;;;;3.58;2.83;;;;;;;;;;10453219;28;20198;-74
2022/05/26 20:33:03;;;;;;;4.18;2.55;;;;;;;;;;10448932;28;20221;-73
2022/05/26 20:38:05;;;;;;;2.72;2.50;;;;;;;;;;10430089;28;20219;-73
2022/05/26 20:43:07;;;;;;;6.20;3.20;;;;;;;;;;10454973;28;20525;-74
2022/05/26 20:48:11;;;;;;;6.05;2.72;;;;;;;;;;10444247;28;20209;-74
2022/05/26 20:53:12;;;;;;;3.67;2.38;;;;;;;;;;10445666;28;20319;-73
2022/05/26 20:58:13;;;;;;;2.80;2.58;;;;;;;;;;10457720;28;20820;-72
2022/05/26 21:03:15;;;;;;;4.03;2.72;;;;;;;;;;10450539;28;20322;-74
2022/05/26 21:08:21;;;;;;;2.47;2.30;;;;;;;;;;10414526;28;20226;-73
2022/05/26 21:13:22;;;;;;;3.50;2.10;;;;;;;;;;10448411;28;21102;-74
2022/05/26 21:18:25;;;;;;;3.67;2.65;;;;;;;;;;10444756;28;20190;-74
2022/05/26 21:23:27;;;;;;;3.35;2.40;;;;;;;;;;10439495;28;20210;-74
2022/05/26 21:28:28;;;;;;;3.75;2.20;;;;;;;;;;10442679;28;20206;-74
2022/05/26 21:33:30;;;;;;;7.60;2.15;;;;;;;;;;10436949;28;20615;-73
2022/05/26 21:38:31;;;;;;;2.42;2.20;;;;;;;;;;10442877;28;20247;-73
2022/05/26 21:43:36;;;;;;;2.17;1.95;;;;;;;;;;10418443;28;20194;-73
2022/05/26 21:48:38;;;;;;;3.88;2.50;;;;;;;;;;10447773;28;20930;-73
2022/05/26 21:53:39;;;;;;;3.72;1.70;;;;;;;;;;10452466;28;20197;-74
2022/05/26 21:58:40;;;;;;;4.57;2.70;;;;;;;;;;10406159;28;20685;-74
2022/05/26 22:03:46;;;;;;;2.97;1.90;;;;;;;;;;10412773;28;20225;-74
2022/05/26 22:14:08;;;;;;;3.53;2.00;;;;;;;;;;10409602;28;20209;-73
2022/05/26 22:19:10;;;;;;;5.20;2.60;;;;;;;;;;10445503;28;20226;-73
2022/05/26 22:24:13;;;;;;;2.55;2.35;;;;;;;;;;10427305;28;20202;-75
2022/05/26 22:29:15;;;;;;;2.70;2.50;;;;;;;;;;10448249;28;20690;-73
2022/05/26 22:34:23;;;;;;;5.32;3.08;;;;;;;;;;10410560;28;20257;-73
2022/05/26 22:39:24;;;;;;;8.60;4.40;;;;;;;;;;10425928;28;20236;-73
2022/05/26 22:44:25;;;;;;;8.35;4.13;;;;;;;;;;10434263;28;20785;-74
2022/05/26 22:49:26;;;;;;;4.85;4.10;;;;;;;;;;10449151;28;20211;-73
2022/05/26 22:54:28;;;;;;;5.65;4.43;;;;;;;;;;10410946;28;20201;-74
2022/05/26 22:59:29;;;;;;;5.35;4.60;;;;;;;;;;10453435;28;20244;-74
2022/05/26 23:04:30;;;;;;;6.88;5.55;;;;;;;;;;10451529;28;20338;-74
2022/05/26 23:09:31;;;;;;;6.45;5.90;;;;;;;;;;10437062;28;20210;-73
2022/05/26 23:14:33;;;;;;;7.32;6.68;;;;;;;;;;10430739;28;21151;-74
2022/05/26 23:19:34;;;;;;;7.85;7.05;;;;;;;;;;10432651;28;20206;-73
2022/05/26 23:24:35;;;;;;;9.55;8.38;;;;;;;;;;10453230;28;20202;-73
2022/05/26 23:29:36;;;;;;;14.35;8.95;;;;;;;;;;10445982;28;20213;-74
2022/05/26 23:34:37;;;;;;;12.63;11.43;;;;;;;;;;10450345;28;20283;-73
2022/05/26 23:39:38;;;;;;;14.02;12.35;;;;;;;;;;10448708;28;20619;-74
2022/05/26 23:44:39;;;;;;;14.50;12.98;;;;;;;;;;10437774;28;20262;-73
2022/05/26 23:49:40;;;;;;;18.05;14.07;;;;;;;;;;10437773;28;20209;-74
2022/05/26 23:54:41;;;;;;;21.38;16.55;;;;;;;;;;10431935;28;20194;-73
2022/05/26 23:59:43;;;;;;;17.92;16.05;;;;;;;;;;10456267;28;20198;-75
